createdAt,value
2022-08-24T00:02:01.503Z,19.38
2022-08-24T00:04:28.434Z,19.36
2022-08-24T00:06:58.725Z,19.30
2022-08-24T00:09:25.210Z,19.35
2022-08-24T00:11:51.732Z,19.18
2022-08-24T00:14:18.686Z,19.15
2022-08-24T00:16:45.694Z,19.24
2022-08-24T00:19:12.668Z,19.14
2022-08-24T00:21:39.267Z,19.12
2022-08-24T00:24:06.396Z,18.97
2022-08-24T00:26:32.916Z,18.91
2022-08-24T00:29:01.393Z,18.89
2022-08-24T00:31:30.769Z,18.88
2022-08-24T00:33:57.304Z,18.86
2022-08-24T00:36:24.766Z,18.85
2022-08-24T00:38:51.464Z,18.89
2022-08-24T00:41:18.227Z,18.86
2022-08-24T00:43:59.859Z,18.83
2022-08-24T00:46:43.267Z,18.75
2022-08-24T00:49:38.543Z,18.72
2022-08-24T00:52:06.777Z,18.69
2022-08-24T00:54:42.811Z,18.67
2022-08-24T00:57:14.345Z,18.61
2022-08-24T00:59:49.170Z,18.58
2022-08-24T01:02:24.760Z,18.47
2022-08-24T01:04:56.058Z,18.26
2022-08-24T01:07:25.066Z,18.29
2022-08-24T01:09:53.018Z,18.42
2022-08-24T01:12:19.878Z,18.39
2022-08-24T01:14:46.747Z,18.00
2022-08-24T01:17:36.217Z,17.94
2022-08-24T01:20:07.220Z,17.99
2022-08-24T01:22:50.201Z,18.06
2022-08-24T01:25:17.212Z,18.13
2022-08-24T01:27:44.233Z,18.17
2022-08-24T01:30:13.861Z,18.22
2022-08-24T01:32:41.527Z,18.28
2022-08-24T01:35:08.943Z,18.27
2022-08-24T01:37:35.648Z,18.13
2022-08-24T01:40:06.538Z,18.05
2022-08-24T01:42:34.882Z,18.13
2022-08-24T01:45:01.968Z,18.16
2022-08-24T01:47:29.051Z,17.99
2022-08-24T01:49:55.665Z,18.03
2022-08-24T01:52:25.305Z,18.09
2022-08-24T01:54:52.438Z,18.18
2022-08-24T01:57:19.872Z,18.18
2022-08-24T01:59:49.639Z,18.15
2022-08-24T02:02:19.773Z,18.24
2022-08-24T02:04:46.488Z,18.20
2022-08-24T02:07:13.963Z,18.00
2022-08-24T02:09:40.461Z,17.96
2022-08-24T02:12:07.488Z,17.93
2022-08-24T02:14:34.527Z,18.03
2022-08-24T02:17:04.458Z,18.09
2022-08-24T02:19:31.096Z,17.95
2022-08-24T02:21:57.592Z,17.89
2022-08-24T02:24:24.100Z,17.83
2022-08-24T02:26:50.742Z,17.73
2022-08-24T02:29:17.635Z,17.68
2022-08-24T02:31:44.130Z,17.61
2022-08-24T02:34:10.792Z,17.36
2022-08-24T02:36:38.359Z,17.33
2022-08-24T02:39:06.090Z,17.29
2022-08-24T02:41:32.613Z,17.14
2022-08-24T02:43:59.993Z,17.04
2022-08-24T02:46:28.500Z,17.07
2022-08-24T02:49:03.605Z,17.11
2022-08-24T02:51:45.002Z,17.24
2022-08-24T02:54:13.621Z,17.09
2022-08-24T02:56:40.161Z,17.10
2022-08-24T02:59:06.880Z,17.12
2022-08-24T03:01:33.451Z,16.99
2022-08-24T03:03:59.988Z,17.06
2022-08-24T03:06:26.501Z,17.05
2022-08-24T03:08:56.170Z,17.10
2022-08-24T03:11:27.692Z,17.13
2022-08-24T03:13:59.116Z,17.24
2022-08-24T03:16:26.892Z,17.18
2022-08-24T03:18:53.495Z,17.14
2022-08-24T03:21:20.873Z,17.03
2022-08-24T03:23:47.644Z,17.01
2022-08-24T03:26:14.744Z,17.06
2022-08-24T03:28:41.820Z,17.00
2022-08-24T03:31:11.286Z,17.08
2022-08-24T03:33:38.056Z,17.06
2022-08-24T03:36:04.567Z,16.98
2022-08-24T03:38:31.055Z,16.93
2022-08-24T03:40:57.667Z,16.88
2022-08-24T03:43:42.635Z,16.86
2022-08-24T03:46:11.916Z,17.04
2022-08-24T03:48:44.232Z,17.01
2022-08-24T03:51:12.571Z,16.93
2022-08-24T03:53:42.394Z,16.95
2022-08-24T03:56:10.958Z,16.98
2022-08-24T03:58:39.514Z,16.87
2022-08-24T04:01:06.233Z,16.89
2022-08-24T04:03:36.019Z,16.90
2022-08-24T04:06:02.604Z,16.88
2022-08-24T04:08:30.076Z,16.80
2022-08-24T04:10:58.086Z,16.72
2022-08-24T04:13:25.144Z,16.83
2022-08-24T04:15:52.931Z,16.75
2022-08-24T04:18:20.179Z,16.77
2022-08-24T04:20:46.686Z,16.76
2022-08-24T04:23:13.417Z,16.72
2022-08-24T04:25:46.495Z,16.64
2022-08-24T04:28:15.088Z,16.66
2022-08-24T04:30:42.981Z,16.71
2022-08-24T04:33:11.186Z,16.68
2022-08-24T04:35:42.904Z,16.56
2022-08-24T04:38:09.892Z,16.48
2022-08-24T04:40:39.486Z,16.40
2022-08-24T04:43:06.146Z,16.57
2022-08-24T04:45:34.158Z,16.50
2022-08-24T04:48:00.685Z,16.49
2022-08-24T04:50:27.264Z,16.52
2022-08-24T04:52:53.755Z,16.65
2022-08-24T04:55:20.263Z,16.66
2022-08-24T04:57:46.788Z,16.59
2022-08-24T05:00:13.612Z,16.52
2022-08-24T05:02:44.691Z,16.51
2022-08-24T05:05:11.881Z,16.54
2022-08-24T05:07:38.800Z,16.49
2022-08-24T05:10:07.428Z,16.58
2022-08-24T05:12:35.438Z,16.68
2022-08-24T05:15:02.034Z,16.64
2022-08-24T05:17:28.562Z,16.78
2022-08-24T05:19:55.127Z,16.78
2022-08-24T05:22:22.271Z,16.85
2022-08-24T05:24:48.781Z,16.86
2022-08-24T05:27:15.925Z,16.91
2022-08-24T05:29:45.965Z,16.97
2022-08-24T05:32:12.540Z,17.13
2022-08-24T05:34:39.223Z,17.23
2022-08-24T05:37:05.757Z,17.66
2022-08-24T05:39:32.739Z,18.00
2022-08-24T05:42:00.876Z,18.37
2022-08-24T05:44:31.061Z,18.73
2022-08-24T05:46:58.720Z,18.83
2022-08-24T05:49:26.130Z,19.05
2022-08-24T05:51:52.891Z,19.43
2022-08-24T05:54:19.922Z,19.77
2022-08-24T05:56:46.585Z,19.92
2022-08-24T05:59:13.967Z,20.02
2022-08-24T06:01:45.150Z,20.21
2022-08-24T06:04:12.755Z,19.98
2022-08-24T06:06:39.273Z,20.17
2022-08-24T06:09:06.013Z,20.14
2022-08-24T06:11:37.836Z,20.17
2022-08-24T06:14:09.426Z,20.38
2022-08-24T06:16:40.907Z,20.73
2022-08-24T06:19:09.100Z,20.93
2022-08-24T06:21:35.667Z,21.07
2022-08-24T06:24:02.169Z,21.06
2022-08-24T06:26:49.918Z,21.48
2022-08-24T06:29:17.897Z,21.27
2022-08-24T06:31:46.469Z,21.50
2022-08-24T06:34:14.615Z,21.46
2022-08-24T06:36:41.438Z,21.29
2022-08-24T06:39:10.004Z,21.50
2022-08-24T06:41:38.227Z,21.42
2022-08-24T06:44:05.884Z,21.44
2022-08-24T06:46:33.114Z,21.31
2022-08-24T06:48:59.953Z,21.20
2022-08-24T06:51:26.440Z,21.21
2022-08-24T06:53:55.670Z,21.13
2022-08-24T06:56:22.484Z,21.25
2022-08-24T06:58:48.978Z,21.24
2022-08-24T07:01:18.225Z,21.21
2022-08-24T07:03:45.019Z,21.32
2022-08-24T07:06:14.095Z,21.25
2022-08-24T07:08:42.233Z,21.10
2022-08-24T07:11:09.702Z,21.52
2022-08-24T07:13:36.238Z,21.86
2022-08-24T07:16:03.443Z,21.78
2022-08-24T07:18:30.018Z,22.19
2022-08-24T07:20:56.520Z,22.11
2022-08-24T07:23:23.185Z,22.27
2022-08-24T07:28:47.671Z,22.54
2022-08-24T07:31:14.969Z,22.60
2022-08-24T07:33:41.800Z,22.70
2022-08-24T07:36:08.447Z,22.93
2022-08-24T07:38:35.136Z,22.57
2022-08-24T07:41:33.249Z,22.94
2022-08-24T07:43:48.694Z,22.77
2022-08-24T07:46:15.351Z,22.52
2022-08-24T07:48:41.885Z,22.85
2022-08-24T07:51:09.574Z,22.96
2022-08-24T07:53:52.626Z,23.07
2022-08-24T07:56:20.330Z,23.09
2022-08-24T07:58:47.391Z,22.83
2022-08-24T08:01:13.947Z,22.82
2022-08-24T08:03:41.634Z,23.28
2022-08-24T08:06:16.155Z,23.72
2022-08-24T08:08:43.050Z,23.45
2022-08-24T08:11:10.247Z,23.00
2022-08-24T08:13:37.189Z,23.34
2022-08-24T08:16:07.898Z,23.32
2022-08-24T08:18:35.229Z,23.38
2022-08-24T08:21:26.207Z,23.35
2022-08-24T08:24:11.331Z,22.99
2022-08-24T08:26:38.664Z,23.19
2022-08-24T08:29:05.225Z,23.24
2022-08-24T08:31:31.773Z,23.75
2022-08-24T08:34:01.009Z,23.88
2022-08-24T08:36:27.563Z,23.87
2022-08-24T08:38:54.188Z,24.25
2022-08-24T08:41:58.268Z,24.05
2022-08-24T08:44:49.252Z,23.92
2022-08-24T08:47:44.909Z,23.92
2022-08-24T08:50:48.635Z,24.47
2022-08-24T08:53:39.965Z,24.02
2022-08-24T08:56:30.256Z,23.99
2022-08-24T08:59:50.116Z,24.41
2022-08-24T09:02:43.816Z,24.28
2022-08-24T09:05:32.163Z,24.44
2022-08-24T09:08:19.855Z,24.74
2022-08-24T09:11:06.037Z,24.84
2022-08-24T09:13:48.526Z,24.81
2022-08-24T09:16:29.354Z,24.54
2022-08-24T09:19:10.735Z,24.65
2022-08-24T09:22:01.181Z,25.07
2022-08-24T09:24:53.256Z,25.06
2022-08-24T09:27:32.581Z,25.02
2022-08-24T09:30:10.283Z,25.28
2022-08-24T09:33:10.429Z,25.43
2022-08-24T09:35:58.816Z,25.50
2022-08-24T09:39:00.022Z,25.62
2022-08-24T09:42:07.313Z,25.52
2022-08-24T09:44:55.319Z,25.49
2022-08-24T09:47:45.598Z,25.80
2022-08-24T09:50:21.158Z,25.62
2022-08-24T09:53:26.181Z,25.68
2022-08-24T09:56:02.209Z,25.87
2022-08-24T09:58:41.037Z,25.78
2022-08-24T10:01:25.900Z,25.89
2022-08-24T10:04:14.884Z,26.25
2022-08-24T10:07:06.961Z,26.61
2022-08-24T10:09:54.207Z,26.11
2022-08-24T10:12:56.221Z,26.14
2022-08-24T10:15:38.589Z,25.98
2022-08-24T10:18:21.702Z,25.71
2022-08-24T10:21:19.318Z,25.73
2022-08-24T10:24:13.335Z,26.62
2022-08-24T10:26:47.259Z,26.94
2022-08-24T10:29:28.403Z,26.65
2022-08-24T10:32:26.098Z,26.50
2022-08-24T10:35:05.843Z,26.63
2022-08-24T10:37:44.291Z,27.04
2022-08-24T10:40:32.199Z,27.15
2022-08-24T10:43:35.825Z,27.38
2022-08-24T10:46:36.399Z,27.58
2022-08-24T10:49:22.207Z,27.70
2022-08-24T10:52:06.987Z,27.45
2022-08-24T10:54:34.700Z,27.33
2022-08-24T10:57:12.299Z,27.62
2022-08-24T11:00:22.894Z,27.60
2022-08-24T11:02:50.254Z,27.61
2022-08-24T11:05:29.546Z,27.06
2022-08-24T11:08:05.240Z,27.60
2022-08-24T11:10:39.918Z,27.53
2022-08-24T11:13:17.887Z,27.76
2022-08-24T11:15:49.537Z,28.27
2022-08-24T11:18:16.957Z,28.19
2022-08-24T11:20:46.914Z,27.96
2022-08-24T11:23:20.451Z,27.61
2022-08-24T11:25:59.560Z,27.56
2022-08-24T11:28:33.690Z,27.68
2022-08-24T11:31:00.712Z,28.07
2022-08-24T11:33:44.719Z,27.47
2022-08-24T11:36:21.123Z,27.45
2022-08-24T11:38:47.983Z,27.84
2022-08-24T11:41:23.286Z,27.54
2022-08-24T11:44:17.604Z,27.44
2022-08-24T11:47:04.196Z,27.28
2022-08-24T11:49:48.137Z,27.41
2022-08-24T11:52:59.899Z,27.83
2022-08-24T11:55:41.678Z,28.35
2022-08-24T11:58:47.952Z,27.90
2022-08-24T12:01:27.723Z,27.83
2022-08-24T12:04:14.151Z,28.34
2022-08-24T12:07:02.532Z,27.82
2022-08-24T12:10:08.524Z,27.66
2022-08-24T12:12:53.138Z,27.95
2022-08-24T12:16:00.540Z,28.35
2022-08-24T12:18:48.228Z,27.94
2022-08-24T12:21:22.070Z,27.82
2022-08-24T12:23:57.397Z,28.45
2022-08-24T12:26:44.516Z,28.57
2022-08-24T12:29:28.852Z,28.41
2022-08-24T12:32:02.258Z,28.66
2022-08-24T12:34:57.948Z,28.42
2022-08-24T12:37:32.354Z,28.54
2022-08-24T12:40:07.302Z,28.57
2022-08-24T12:42:41.136Z,28.59
2022-08-24T12:45:14.118Z,28.07
2022-08-24T12:48:13.066Z,28.31
2022-08-24T12:50:51.722Z,28.39
2022-08-24T12:53:33.185Z,28.55
2022-08-24T12:56:15.377Z,28.62
2022-08-24T12:58:59.111Z,28.72
2022-08-24T13:01:29.781Z,29.23
2022-08-24T13:04:38.499Z,28.52
2022-08-24T13:07:11.544Z,28.39
2022-08-24T13:09:58.237Z,28.36
2022-08-24T13:12:30.488Z,28.31
2022-08-24T13:15:22.734Z,28.48
2022-08-24T13:17:51.610Z,28.25
2022-08-24T13:20:27.343Z,28.23
2022-08-24T13:23:04.513Z,28.57
2022-08-24T13:25:54.653Z,28.64
2022-08-24T13:28:21.166Z,28.50
2022-08-24T13:30:56.385Z,27.94
2022-08-24T13:33:41.222Z,27.83
2022-08-24T13:36:28.694Z,27.88
2022-08-24T13:39:07.072Z,28.17
2022-08-24T13:42:11.961Z,28.28
2022-08-24T13:45:35.418Z,28.33
2022-08-24T13:48:07.529Z,28.17
2022-08-24T13:50:40.157Z,27.86
2022-08-24T13:53:32.711Z,28.09
2022-08-24T13:56:33.221Z,27.99
2022-08-24T13:59:06.781Z,28.63
2022-08-24T14:01:59.517Z,28.73
2022-08-24T14:04:26.139Z,27.99
2022-08-24T14:07:17.956Z,28.16
2022-08-24T14:10:02.510Z,28.28
2022-08-24T14:12:34.948Z,27.92
2022-08-24T14:15:30.133Z,27.83
2022-08-24T14:18:14.678Z,28.03
2022-08-24T14:21:09.057Z,28.27
2022-08-24T14:24:00.467Z,28.08
2022-08-24T14:26:40.654Z,28.18
2022-08-24T14:29:19.239Z,28.72
2022-08-24T14:32:00.066Z,28.30
2022-08-24T14:34:48.654Z,28.04
2022-08-24T14:37:16.355Z,28.52
2022-08-24T14:39:51.558Z,27.82
2022-08-24T14:42:21.363Z,28.03
2022-08-24T14:44:51.960Z,28.46
2022-08-24T14:47:38.315Z,28.45
2022-08-24T14:50:17.263Z,28.43
2022-08-24T14:53:01.033Z,27.96
2022-08-24T14:55:56.945Z,27.31
2022-08-24T14:58:43.363Z,27.10
2022-08-24T15:01:09.781Z,27.17
2022-08-24T15:03:51.956Z,26.89
2022-08-24T15:06:27.221Z,27.55
2022-08-24T15:09:25.172Z,27.61
2022-08-24T15:11:55.320Z,27.60
2022-08-24T15:14:33.673Z,27.08
2022-08-24T15:17:10.836Z,26.93
2022-08-24T15:20:01.713Z,26.90
2022-08-24T15:22:44.012Z,26.64
2022-08-24T15:25:15.818Z,27.05
2022-08-24T15:27:48.598Z,27.27
2022-08-24T15:30:23.968Z,27.38
2022-08-24T15:32:55.423Z,27.61
2022-08-24T15:35:25.791Z,27.77
2022-08-24T15:37:52.795Z,27.14
2022-08-24T15:40:29.588Z,27.25
2022-08-24T15:43:04.106Z,27.16
2022-08-24T15:45:31.708Z,27.07
2022-08-24T15:47:59.745Z,27.08
2022-08-24T15:50:29.292Z,26.71
2022-08-24T15:53:01.704Z,26.76
2022-08-24T15:55:28.116Z,26.98
2022-08-24T15:57:56.164Z,26.68
2022-08-24T16:00:44.731Z,26.23
2022-08-24T16:03:27.563Z,26.48
2022-08-24T16:05:56.371Z,26.29
2022-08-24T16:08:23.336Z,26.33
2022-08-24T16:10:55.562Z,26.44
2022-08-24T16:13:32.107Z,26.20
2022-08-24T16:16:12.063Z,26.09
2022-08-24T16:18:41.375Z,26.26
2022-08-24T16:21:24.884Z,26.21
2022-08-24T16:23:57.224Z,26.06
2022-08-24T16:26:28.828Z,25.98
2022-08-24T16:28:56.411Z,26.10
2022-08-24T16:31:46.860Z,26.14
2022-08-24T16:34:29.100Z,25.81
2022-08-24T16:36:56.107Z,25.80
2022-08-24T16:39:23.032Z,25.61
2022-08-24T16:41:51.915Z,25.49
2022-08-24T16:44:18.495Z,25.55
2022-08-24T16:46:48.035Z,25.77
2022-08-24T16:49:14.852Z,25.53
2022-08-24T16:51:45.341Z,25.31
2022-08-24T16:54:12.030Z,25.28
2022-08-24T16:56:38.542Z,25.23
2022-08-24T16:59:06.839Z,25.02
2022-08-24T17:01:33.408Z,24.93
2022-08-24T17:03:59.974Z,24.86
2022-08-24T17:06:26.482Z,24.84
2022-08-24T17:08:53.578Z,24.76
2022-08-24T17:11:20.153Z,24.65
2022-08-24T17:13:50.913Z,24.63
2022-08-24T17:16:18.942Z,24.45
2022-08-24T17:18:45.606Z,24.42
2022-08-24T17:21:12.129Z,24.52
2022-08-24T17:23:39.323Z,24.44
2022-08-24T17:26:19.243Z,24.20
2022-08-24T17:28:47.577Z,23.92
2022-08-24T17:31:14.407Z,24.00
2022-08-24T17:33:42.099Z,23.97
2022-08-24T17:36:15.239Z,23.94
2022-08-24T17:38:51.699Z,23.87
2022-08-24T17:41:21.283Z,23.64
2022-08-24T17:43:47.791Z,23.51
2022-08-24T17:46:14.847Z,23.43
2022-08-24T17:48:44.128Z,23.38
2022-08-24T17:51:11.207Z,23.46
2022-08-24T17:53:37.708Z,23.10
2022-08-24T17:56:06.515Z,23.12
2022-08-24T17:58:53.147Z,22.99
2022-08-24T18:01:19.867Z,22.92
2022-08-24T18:03:46.633Z,22.78
2022-08-24T18:06:13.585Z,22.85
2022-08-24T18:08:40.156Z,22.56
2022-08-24T18:11:06.664Z,22.70
2022-08-24T18:13:33.656Z,22.53
2022-08-24T18:16:00.323Z,22.34
2022-08-24T18:18:26.854Z,22.54
2022-08-24T18:20:53.815Z,22.43
2022-08-24T18:23:21.244Z,22.13
2022-08-24T18:25:51.494Z,22.07
2022-08-24T18:28:21.935Z,21.90
2022-08-24T18:30:50.402Z,21.89
2022-08-24T18:33:17.429Z,21.80
2022-08-24T18:35:45.593Z,21.84
2022-08-24T18:38:12.462Z,21.56
2022-08-24T18:40:40.623Z,21.64
2022-08-24T18:43:19.590Z,21.48
2022-08-24T18:45:46.214Z,21.36
2022-08-24T18:48:12.767Z,21.33
2022-08-24T18:50:42.152Z,21.17
2022-08-24T18:53:09.164Z,21.13
2022-08-24T18:55:37.630Z,21.19
2022-08-24T18:58:05.241Z,21.01
2022-08-24T19:00:31.850Z,20.90
2022-08-24T19:03:02.122Z,20.90
2022-08-24T19:05:28.960Z,20.87
2022-08-24T19:07:55.558Z,20.71
2022-08-24T19:10:25.100Z,20.71
2022-08-24T19:13:02.053Z,20.69
2022-08-24T19:15:38.946Z,20.69
2022-08-24T19:18:11.050Z,20.60
2022-08-24T19:20:47.993Z,20.49
2022-08-24T19:23:28.027Z,20.48
2022-08-24T19:25:54.832Z,20.52
2022-08-24T19:28:22.530Z,20.23
2022-08-24T19:30:49.552Z,20.18
2022-08-24T19:33:21.056Z,20.04
2022-08-24T19:36:07.455Z,19.91
2022-08-24T19:38:34.427Z,19.93
2022-08-24T19:41:02.500Z,19.97
2022-08-24T19:44:00.256Z,20.07
2022-08-24T19:46:27.451Z,20.01
2022-08-24T19:48:53.990Z,20.03
2022-08-24T19:51:20.490Z,20.01
2022-08-24T19:53:47.080Z,20.08
2022-08-24T19:56:13.599Z,20.03
2022-08-24T19:58:47.111Z,19.99
2022-08-24T20:01:18.464Z,20.01
2022-08-24T20:03:45.058Z,20.03
2022-08-24T20:06:12.526Z,20.01
2022-08-24T20:08:40.843Z,19.96
2022-08-24T20:11:08.227Z,20.09
2022-08-24T20:13:35.094Z,19.88
2022-08-24T20:16:05.384Z,19.96
2022-08-24T20:18:34.729Z,19.85
2022-08-24T20:21:01.999Z,19.92
2022-08-24T20:23:29.364Z,19.85
2022-08-24T20:25:57.661Z,19.60
2022-08-24T20:28:29.753Z,19.74
2022-08-24T20:30:57.505Z,19.77
2022-08-24T20:33:24.858Z,19.74
2022-08-24T20:35:51.460Z,19.80
2022-08-24T20:38:19.780Z,19.64
2022-08-24T20:40:46.855Z,19.73
2022-08-24T20:43:13.978Z,19.62
2022-08-24T20:45:41.613Z,19.59
2022-08-24T20:48:11.901Z,19.66
2022-08-24T20:50:38.997Z,19.52
2022-08-24T20:53:06.221Z,19.51
2022-08-24T20:55:32.850Z,19.48
2022-08-24T20:58:01.526Z,19.34
2022-08-24T21:00:28.172Z,19.37
2022-08-24T21:02:55.047Z,19.42
2022-08-24T21:05:22.115Z,19.36
2022-08-24T21:07:49.756Z,19.19
2022-08-24T21:10:21.324Z,19.12
2022-08-24T21:12:51.822Z,18.86
2022-08-24T21:15:18.567Z,18.97
2022-08-24T21:17:45.376Z,18.97
2022-08-24T21:20:13.653Z,18.68
2022-08-24T21:22:40.548Z,18.86
2022-08-24T21:25:09.309Z,18.92
2022-08-24T21:27:38.367Z,18.72
2022-08-24T21:30:06.725Z,18.57
2022-08-24T21:32:51.958Z,18.54
2022-08-24T21:35:18.570Z,18.53
2022-08-24T21:37:47.563Z,18.53
2022-08-24T21:40:14.388Z,18.73
2022-08-24T21:42:40.914Z,18.74
2022-08-24T21:45:07.896Z,18.75
2022-08-24T21:47:34.454Z,18.79
2022-08-24T21:50:00.952Z,18.62
2022-08-24T21:52:27.493Z,18.65
2022-08-24T21:54:56.274Z,18.76
2022-08-24T21:57:22.981Z,18.90
2022-08-24T21:59:49.973Z,18.82
2022-08-24T22:02:16.968Z,18.84
2022-08-24T22:04:47.574Z,18.81
2022-08-24T22:07:23.851Z,18.76
2022-08-24T22:09:50.380Z,18.64
2022-08-24T22:12:16.900Z,18.49
2022-08-24T22:14:43.484Z,18.47
2022-08-24T22:17:10.018Z,18.40
2022-08-24T22:19:36.534Z,18.38
2022-08-24T22:22:03.108Z,18.29
2022-08-24T22:24:29.665Z,18.51
2022-08-24T22:26:56.247Z,18.43
2022-08-24T22:29:22.744Z,18.36
2022-08-24T22:31:49.332Z,18.20
2022-08-24T22:34:21.714Z,18.05
2022-08-24T22:36:48.740Z,17.95
2022-08-24T22:39:15.983Z,18.01
2022-08-24T22:41:43.859Z,17.90
2022-08-24T22:44:19.847Z,17.90
2022-08-24T22:46:57.927Z,18.04
2022-08-24T22:49:30.327Z,18.07
2022-08-24T22:51:56.828Z,18.11
2022-08-24T22:54:23.765Z,18.18
2022-08-24T22:56:52.517Z,18.03
2022-08-24T22:59:22.127Z,18.01
2022-08-24T23:01:51.051Z,18.17
2022-08-24T23:04:21.215Z,18.22
2022-08-24T23:06:47.881Z,18.11
2022-08-24T23:09:15.219Z,18.01
2022-08-24T23:11:42.065Z,17.87
2022-08-24T23:14:10.144Z,17.93
2022-08-24T23:16:38.793Z,18.00
2022-08-24T23:19:25.857Z,18.04
2022-08-24T23:21:53.820Z,18.10
2022-08-24T23:24:20.412Z,18.09
2022-08-24T23:26:46.925Z,17.92
2022-08-24T23:29:14.153Z,17.98
2022-08-24T23:31:41.615Z,18.00
2022-08-24T23:34:08.236Z,18.05
2022-08-24T23:36:36.420Z,18.13
2022-08-24T23:39:04.251Z,18.07
2022-08-24T23:41:33.156Z,18.12
2022-08-24T23:44:01.963Z,18.10
2022-08-24T23:46:28.775Z,18.07
2022-08-24T23:48:56.733Z,18.02
2022-08-24T23:51:25.428Z,17.96
2022-08-24T23:53:53.288Z,18.04
2022-08-24T23:56:22.548Z,18.00
2022-08-24T23:58:49.986Z,18.03
